Safmarine Mulanje — VROX6 — position and weather

sailwx.info

Track history (hours):
 
Tides and Currents Weather Stations Pressure Air Temp Water Temp Dewpoint Dewpoint Depression Visibility Wind Speed Wind Dir Waves Ship Positions

Safmarine Mulanje

Last reported at 2017-Nov-11 18:15 UTC. Time now 2017-Nov-24 12:51 UTC.
Position N 34°13' W 077°57'.
Warning: this ship's position is 12 days out of date.

Length 292 m; draft 11.9 m.

Type: Ship (hazmat cat A). MMSI: 477849300.

Date/timePositionNaut miles runAvg speedWind from/ knotsBaromVisibWave heightAir tempDewpointWater temp
2017-Nov-11 18:15N 34°13' W 077°57'1 3.1
2017-Nov-11 17:59N 34°12' W 077°57'0 0.0
2017-Nov-11 01:13N 34°11' W 077°57'0 1.8
2017-Nov-11 01:00N 34°11' W 077°57'127 9.5
2017-Nov-10 11:36N 32°49' W 079°54'60 2.2
2017-Nov-09 08:01N 31°58' W 080°31'0 9.3
2017-Nov-09 08:00N 31°58' W 080°31'5 9.6
2017-Nov-09 07:30N 31°57' W 080°37'5 9.3
2017-Nov-09 07:00N 31°57' W 080°42'612.7
2017-Nov-09 06:30N 32°01' W 080°48'713.2
2017-Nov-09 06:00N 32°03' W 080°56'611.1
2017-Nov-09 05:30N 32°05' W 081°01'3 7.0
2017-Nov-09 05:00N 32°05' W 081°06'3 5.4
2017-Nov-09 04:30N 32°07' W 081°08'1 2.3
2017-Nov-09 04:00N 32°08' W 081°08'0 0.0
2017-Nov-09 03:30N 32°08' W 081°08'0 0.0
2017-Nov-09 03:00N 32°08' W 081°08'0 0.0
2017-Nov-09 02:30N 32°08' W 081°08'0 0.0
2017-Nov-09 02:00N 32°08' W 081°08'0 0.0
2017-Nov-09 01:30N 32°08' W 081°08'0 0.0
2017-Nov-09 01:00N 32°08' W 081°08'0 0.0
2017-Nov-09 00:30N 32°08' W 081°08'0 0.0
2017-Nov-09 00:00N 32°08' W 081°08'0 0.0
2017-Nov-08 23:30N 32°08' W 081°08'0 0.0
2017-Nov-08 23:00N 32°08' W 081°08'0 0.0
2017-Nov-08 22:30N 32°08' W 081°08'0 0.0
2017-Nov-08 22:00N 32°08' W 081°08'0 0.0
2017-Nov-08 21:30N 32°08' W 081°08'0 0.0
2017-Nov-08 21:00N 32°08' W 081°08'0 0.0
2017-Nov-08 20:30N 32°08' W 081°08'0 0.0
2017-Nov-08 20:00N 32°08' W 081°08'0 0.0
2017-Nov-08 19:30N 32°08' W 081°08'0 0.0
2017-Nov-08 19:00N 32°08' W 081°08'0 0.0
2017-Nov-08 18:30N 32°08' W 081°08'0 0.0
2017-Nov-08 18:00N 32°08' W 081°08'0 0.0
2017-Nov-08 17:30N 32°08' W 081°08'0 0.0
2017-Nov-08 17:00N 32°08' W 081°08'0 0.0
2017-Nov-08 16:30N 32°08' W 081°08'0 0.0
2017-Nov-08 16:00N 32°08' W 081°08'0 0.0
2017-Nov-08 15:30N 32°08' W 081°08'0 0.0
2017-Nov-08 15:00N 32°08' W 081°08'0 0.0
2017-Nov-08 14:30N 32°08' W 081°08'0 0.0
2017-Nov-08 14:00N 32°08' W 081°08'0 0.0
2017-Nov-08 13:30N 32°08' W 081°08'0 0.0
2017-Nov-08 13:00N 32°08' W 081°08'0 0.0
2017-Nov-08 12:30N 32°08' W 081°08'0 0.0
2017-Nov-08 12:00N 32°08' W 081°08'0 0.0
2017-Nov-08 11:30N 32°08' W 081°08'0 0.0
2017-Nov-08 10:55N 32°08' W 081°08'0 0.0
2017-Nov-08 10:25N 32°08' W 081°08'0 0.0
2017-Nov-08 09:55N 32°08' W 081°08'0 0.0
2017-Nov-08 09:25N 32°08' W 081°08'0 0.0
2017-Nov-08 08:55N 32°08' W 081°08'0 0.0
2017-Nov-08 08:25N 32°08' W 081°08'0 0.0
2017-Nov-08 07:55N 32°08' W 081°08'0 0.0
2017-Nov-08 07:13N 32°08' W 081°08'0 0.0
2017-Nov-08 06:55N 32°08' W 081°08'0 0.0
2017-Nov-08 06:25N 32°08' W 081°08'0 0.0
2017-Nov-08 05:49N 32°08' W 081°08'0 0.0
2017-Nov-08 05:25N 32°08' W 081°08'0 0.0
2017-Nov-08 04:49N 32°08' W 081°08'0 0.0
2017-Nov-08 04:25N 32°08' W 081°08'0 0.0
2017-Nov-08 03:55N 32°08' W 081°08'0 0.0
2017-Nov-08 03:25N 32°08' W 081°08'0 0.0
2017-Nov-08 02:55N 32°08' W 081°08'0 0.0
2017-Nov-08 02:25N 32°08' W 081°08'0 0.0
2017-Nov-08 01:55N 32°08' W 081°08'0 0.0
2017-Nov-08 01:25N 32°08' W 081°08'0 0.0
2017-Nov-08 00:43N 32°08' W 081°08'0 0.0
2017-Nov-08 00:25N 32°08' W 081°08'0 0.0
2017-Nov-07 23:55N 32°08' W 081°08'0 0.0
2017-Nov-07 23:25N 32°08' W 081°08'0 0.0
2017-Nov-07 22:55N 32°08' W 081°08'0 0.0
2017-Nov-07 22:19N 32°08' W 081°08'0 0.0
2017-Nov-07 21:55N 32°08' W 081°08'0 0.0
2017-Nov-07 21:25N 32°08' W 081°08'0 0.0
2017-Nov-07 20:55N 32°08' W 081°08'0 0.0
2017-Nov-07 20:25N 32°08' W 081°08'0 0.0
2017-Nov-07 19:55N 32°08' W 081°08'0 0.0
2017-Nov-07 19:19N 32°08' W 081°08'0 0.0
2017-Nov-07 18:49N 32°08' W 081°08'0 0.0
2017-Nov-07 18:25N 32°08' W 081°08'0 0.3
2017-Nov-07 18:00N 32°08' W 081°08'2 3.3
2017-Nov-07 17:30N 32°07' W 081°07'3 5.7
2017-Nov-07 17:00N 32°05' W 081°05'3 7.0
2017-Nov-07 16:30N 32°06' W 081°01'713.3
2017-Nov-07 16:00N 32°02' W 080°54'5 9.3
2017-Nov-07 15:30N 32°02' W 080°49'715.0
2017-Nov-07 15:00N 31°58' W 080°42'510.8
2017-Nov-07 14:30N 31°56' W 080°35'5 9.5
2017-Nov-07 14:00N 31°56' W 080°30'5 9.2
2017-Nov-07 13:30N 31°56' W 080°24'3 6.6
2017-Nov-07 13:00N 31°56' W 080°20'0 1.0
2017-Nov-07 12:30N 31°56' W 080°20'0 1.0
2017-Nov-07 12:00N 31°55' W 080°20'0 0.8
2017-Nov-07 11:30N 31°55' W 080°20'0 0.8
2017-Nov-07 11:00N 31°55' W 080°19'0 0.9
2017-Nov-07 10:30N 31°55' W 080°19'0 0.8
2017-Nov-07 10:00N 31°54' W 080°19'0 0.7
2017-Nov-07 09:30N 31°54' W 080°18'0 0.6
2017-Nov-07 09:00N 31°54' W 080°18'0 0.4
2017-Nov-07 08:30N 31°54' W 080°18'0 0.5
2017-Nov-07 08:00N 31°54' W 080°18'0 0.6
2017-Nov-07 07:30N 31°54' W 080°17'0 0.9
2017-Nov-07 07:00N 31°55' W 080°17'1 0.7
2017-Nov-07 06:18N 31°55' W 080°17'0 0.6
2017-Nov-07 05:51N 31°56' W 080°17'0 0.7
2017-Nov-07 05:30N 31°56' W 080°17'0 0.7
2017-Nov-07 05:00N 31°56' W 080°18'0 0.4
2017-Nov-07 04:30N 31°56' W 080°18'0 0.7
2017-Nov-07 04:00N 31°56' W 080°18'0 0.8
2017-Nov-07 03:30N 31°56' W 080°18'0 0.7
2017-Nov-07 03:00N 31°56' W 080°19'0 0.5
2017-Nov-07 02:30N 31°56' W 080°19'1 0.5
2017-Nov-07 01:29N 31°55' W 080°19'0 0.6
2017-Nov-07 00:55N 31°55' W 080°19'0 1.1
2017-Nov-07 00:30N 31°54' W 080°19'2 3.1
2017-Nov-07 00:00N 31°54' W 080°21'3 6.9
2017-Nov-06 23:30N 31°54' W 080°25'2 0.6
2017-Nov-06 21:01N 31°53' W 080°23'0 0.0
2017-Nov-06 21:00N 31°53' W 080°23'0 0.3
2017-Nov-06 20:27N 31°53' W 080°23'  
Track history (hours):
 
Tides and Currents Weather Stations Pressure Air Temp Water Temp Dewpoint Dewpoint Depression Visibility Wind Speed Wind Dir Waves Ship Positions

Safmarine Mulanje

Last reported at 2017-Nov-11 18:15 UTC. Time now 2017-Nov-24 12:51 UTC.
Position N 34°13' W 077°57'.
Warning: this ship's position is 12 days out of date.

Length 292 m; draft 11.9 m.

Type: Ship (hazmat cat A). MMSI: 477849300.

Date/timePositionNaut miles runAvg speedWind from/ knotsBaromVisibWave heightAir tempDewpointWater temp
2017-Nov-11 18:15N 34°13' W 077°57'1 3.1
2017-Nov-11 17:59N 34°12' W 077°57'0 0.0
2017-Nov-11 01:13N 34°11' W 077°57'0 1.8
2017-Nov-11 01:00N 34°11' W 077°57'127 9.5
2017-Nov-10 11:36N 32°49' W 079°54'60 2.2
2017-Nov-09 08:01N 31°58' W 080°31'0 9.3
2017-Nov-09 08:00N 31°58' W 080°31'5 9.6
2017-Nov-09 07:30N 31°57' W 080°37'5 9.3
2017-Nov-09 07:00N 31°57' W 080°42'612.7
2017-Nov-09 06:30N 32°01' W 080°48'713.2
2017-Nov-09 06:00N 32°03' W 080°56'611.1
2017-Nov-09 05:30N 32°05' W 081°01'3 7.0
2017-Nov-09 05:00N 32°05' W 081°06'3 5.4
2017-Nov-09 04:30N 32°07' W 081°08'1 2.3
2017-Nov-09 04:00N 32°08' W 081°08'0 0.0
2017-Nov-09 03:30N 32°08' W 081°08'0 0.0
2017-Nov-09 03:00N 32°08' W 081°08'0 0.0
2017-Nov-09 02:30N 32°08' W 081°08'0 0.0
2017-Nov-09 02:00N 32°08' W 081°08'0 0.0
2017-Nov-09 01:30N 32°08' W 081°08'0 0.0
2017-Nov-09 01:00N 32°08' W 081°08'0 0.0
2017-Nov-09 00:30N 32°08' W 081°08'0 0.0
2017-Nov-09 00:00N 32°08' W 081°08'0 0.0
2017-Nov-08 23:30N 32°08' W 081°08'0 0.0
2017-Nov-08 23:00N 32°08' W 081°08'0 0.0
2017-Nov-08 22:30N 32°08' W 081°08'0 0.0
2017-Nov-08 22:00N 32°08' W 081°08'0 0.0
2017-Nov-08 21:30N 32°08' W 081°08'0 0.0
2017-Nov-08 21:00N 32°08' W 081°08'0 0.0
2017-Nov-08 20:30N 32°08' W 081°08'0 0.0
2017-Nov-08 20:00N 32°08' W 081°08'0 0.0
2017-Nov-08 19:30N 32°08' W 081°08'0 0.0
2017-Nov-08 19:00N 32°08' W 081°08'0 0.0
2017-Nov-08 18:30N 32°08' W 081°08'0 0.0
2017-Nov-08 18:00N 32°08' W 081°08'0 0.0
2017-Nov-08 17:30N 32°08' W 081°08'0 0.0
2017-Nov-08 17:00N 32°08' W 081°08'0 0.0
2017-Nov-08 16:30N 32°08' W 081°08'0 0.0
2017-Nov-08 16:00N 32°08' W 081°08'0 0.0
2017-Nov-08 15:30N 32°08' W 081°08'0 0.0
2017-Nov-08 15:00N 32°08' W 081°08'0 0.0
2017-Nov-08 14:30N 32°08' W 081°08'0 0.0
2017-Nov-08 14:00N 32°08' W 081°08'0 0.0
2017-Nov-08 13:30N 32°08' W 081°08'0 0.0
2017-Nov-08 13:00N 32°08' W 081°08'0 0.0
2017-Nov-08 12:30N 32°08' W 081°08'0 0.0
2017-Nov-08 12:00N 32°08' W 081°08'0 0.0
2017-Nov-08 11:30N 32°08' W 081°08'0 0.0
2017-Nov-08 10:55N 32°08' W 081°08'0 0.0
2017-Nov-08 10:25N 32°08' W 081°08'0 0.0
2017-Nov-08 09:55N 32°08' W 081°08'0 0.0
2017-Nov-08 09:25N 32°08' W 081°08'0 0.0
2017-Nov-08 08:55N 32°08' W 081°08'0 0.0
2017-Nov-08 08:25N 32°08' W 081°08'0 0.0
2017-Nov-08 07:55N 32°08' W 081°08'0 0.0
2017-Nov-08 07:13N 32°08' W 081°08'0 0.0
2017-Nov-08 06:55N 32°08' W 081°08'0 0.0
2017-Nov-08 06:25N 32°08' W 081°08'0 0.0
2017-Nov-08 05:49N 32°08' W 081°08'0 0.0
2017-Nov-08 05:25N 32°08' W 081°08'0 0.0
2017-Nov-08 04:49N 32°08' W 081°08'0 0.0
2017-Nov-08 04:25N 32°08' W 081°08'0 0.0
2017-Nov-08 03:55N 32°08' W 081°08'0 0.0
2017-Nov-08 03:25N 32°08' W 081°08'0 0.0
2017-Nov-08 02:55N 32°08' W 081°08'0 0.0
2017-Nov-08 02:25N 32°08' W 081°08'0 0.0
2017-Nov-08 01:55N 32°08' W 081°08'0 0.0
2017-Nov-08 01:25N 32°08' W 081°08'0 0.0
2017-Nov-08 00:43N 32°08' W 081°08'0 0.0
2017-Nov-08 00:25N 32°08' W 081°08'0 0.0
2017-Nov-07 23:55N 32°08' W 081°08'0 0.0
2017-Nov-07 23:25N 32°08' W 081°08'0 0.0
2017-Nov-07 22:55N 32°08' W 081°08'0 0.0
2017-Nov-07 22:19N 32°08' W 081°08'0 0.0
2017-Nov-07 21:55N 32°08' W 081°08'0 0.0
2017-Nov-07 21:25N 32°08' W 081°08'0 0.0
2017-Nov-07 20:55N 32°08' W 081°08'0 0.0
2017-Nov-07 20:25N 32°08' W 081°08'0 0.0
2017-Nov-07 19:55N 32°08' W 081°08'0 0.0
2017-Nov-07 19:19N 32°08' W 081°08'0 0.0
2017-Nov-07 18:49N 32°08' W 081°08'0 0.0
2017-Nov-07 18:25N 32°08' W 081°08'0 0.3
2017-Nov-07 18:00N 32°08' W 081°08'2 3.3
2017-Nov-07 17:30N 32°07' W 081°07'3 5.7
2017-Nov-07 17:00N 32°05' W 081°05'3 7.0
2017-Nov-07 16:30N 32°06' W 081°01'713.3
2017-Nov-07 16:00N 32°02' W 080°54'5 9.3
2017-Nov-07 15:30N 32°02' W 080°49'715.0
2017-Nov-07 15:00N 31°58' W 080°42'510.8
2017-Nov-07 14:30N 31°56' W 080°35'5 9.5
2017-Nov-07 14:00N 31°56' W 080°30'5 9.2
2017-Nov-07 13:30N 31°56' W 080°24'3 6.6
2017-Nov-07 13:00N 31°56' W 080°20'0 1.0
2017-Nov-07 12:30N 31°56' W 080°20'0 1.0
2017-Nov-07 12:00N 31°55' W 080°20'0 0.8
2017-Nov-07 11:30N 31°55' W 080°20'0 0.8
2017-Nov-07 11:00N 31°55' W 080°19'0 0.9
2017-Nov-07 10:30N 31°55' W 080°19'0 0.8
2017-Nov-07 10:00N 31°54' W 080°19'0 0.7
2017-Nov-07 09:30N 31°54' W 080°18'0 0.6
2017-Nov-07 09:00N 31°54' W 080°18'0 0.4
2017-Nov-07 08:30N 31°54' W 080°18'0 0.5
2017-Nov-07 08:00N 31°54' W 080°18'0 0.6
2017-Nov-07 07:30N 31°54' W 080°17'0 0.9
2017-Nov-07 07:00N 31°55' W 080°17'1 0.7
2017-Nov-07 06:18N 31°55' W 080°17'0 0.6
2017-Nov-07 05:51N 31°56' W 080°17'0 0.7
2017-Nov-07 05:30N 31°56' W 080°17'0 0.7
2017-Nov-07 05:00N 31°56' W 080°18'0 0.4
2017-Nov-07 04:30N 31°56' W 080°18'0 0.7
2017-Nov-07 04:00N 31°56' W 080°18'0 0.8
2017-Nov-07 03:30N 31°56' W 080°18'0 0.7
2017-Nov-07 03:00N 31°56' W 080°19'0 0.5
2017-Nov-07 02:30N 31°56' W 080°19'1 0.5
2017-Nov-07 01:29N 31°55' W 080°19'0 0.6
2017-Nov-07 00:55N 31°55' W 080°19'0 1.1
2017-Nov-07 00:30N 31°54' W 080°19'2 3.1
2017-Nov-07 00:00N 31°54' W 080°21'3 6.9
2017-Nov-06 23:30N 31°54' W 080°25'2 0.6
2017-Nov-06 21:01N 31°53' W 080°23'0 0.0
2017-Nov-06 21:00N 31°53' W 080°23'0 0.3
2017-Nov-06 20:27N 31°53' W 080°23'  

Dump ship's entire track history